sensor_id;sensor_type;location;lat;lon;timestamp;temperature;humidity
15113;DHT22;7657;50.140;7.076;2023-08-30T00:01:58;15.30;99.90
15113;DHT22;7657;50.140;7.076;2023-08-30T00:04:25;15.30;99.90
15113;DHT22;7657;50.140;7.076;2023-08-30T00:06:52;15.30;99.90
15113;DHT22;7657;50.140;7.076;2023-08-30T00:09:19;15.30;99.90
15113;DHT22;7657;50.140;7.076;2023-08-30T00:11:45;15.40;99.90
15113;DHT22;7657;50.140;7.076;2023-08-30T00:14:12;15.50;99.90
15113;DHT22;7657;50.140;7.076;2023-08-30T00:16:39;15.50;99.90
15113;DHT22;7657;50.140;7.076;2023-08-30T00:19:07;15.60;99.90
15113;DHT22;7657;50.140;7.076;2023-08-30T00:21:34;15.60;99.90
15113;DHT22;7657;50.140;7.076;2023-08-30T00:24:01;15.60;99.90
15113;DHT22;7657;50.140;7.076;2023-08-30T00:26:28;15.60;99.90
15113;DHT22;7657;50.140;7.076;2023-08-30T00:28:55;15.60;99.90
15113;DHT22;7657;50.140;7.076;2023-08-30T00:31:22;15.60;99.90
15113;DHT22;7657;50.140;7.076;2023-08-30T00:33:49;15.50;99.90
15113;DHT22;7657;50.140;7.076;2023-08-30T00:36:17;15.40;99.90
15113;DHT22;7657;50.140;7.076;2023-08-30T00:38:44;15.40;99.90
15113;DHT22;7657;50.140;7.076;2023-08-30T00:41:11;15.40;99.90
15113;DHT22;7657;50.140;7.076;2023-08-30T00:43:39;15.40;99.90
15113;DHT22;7657;50.140;7.076;2023-08-30T00:46:06;15.40;99.90
15113;DHT22;7657;50.140;7.076;2023-08-30T00:48:32;15.50;99.90
15113;DHT22;7657;50.140;7.076;2023-08-30T00:50:59;15.60;99.90
15113;DHT22;7657;50.140;7.076;2023-08-30T00:53:28;15.60;99.90
15113;DHT22;7657;50.140;7.076;2023-08-30T00:55:54;15.70;99.90
15113;DHT22;7657;50.140;7.076;2023-08-30T00:58:22;15.70;99.90
15113;DHT22;7657;50.140;7.076;2023-08-30T01:00:49;15.80;99.90
15113;DHT22;7657;50.140;7.076;2023-08-30T01:03:16;15.80;99.90
15113;DHT22;7657;50.140;7.076;2023-08-30T01:05:43;15.80;99.90
15113;DHT22;7657;50.140;7.076;2023-08-30T01:08:10;15.80;99.90
15113;DHT22;7657;50.140;7.076;2023-08-30T01:10:51;15.80;99.90
15113;DHT22;7657;50.140;7.076;2023-08-30T01:13:20;15.80;99.90
15113;DHT22;7657;50.140;7.076;2023-08-30T01:15:47;15.80;99.90
15113;DHT22;7657;50.140;7.076;2023-08-30T01:18:17;15.80;99.90
15113;DHT22;7657;50.140;7.076;2023-08-30T01:20:45;15.80;99.90
15113;DHT22;7657;50.140;7.076;2023-08-30T01:23:20;15.80;99.90
15113;DHT22;7657;50.140;7.076;2023-08-30T01:25:55;15.70;99.90
15113;DHT22;7657;50.140;7.076;2023-08-30T01:28:28;15.70;99.90
15113;DHT22;7657;50.140;7.076;2023-08-30T01:30:57;15.50;99.90
15113;DHT22;7657;50.140;7.076;2023-08-30T01:33:25;15.60;99.90
15113;DHT22;7657;50.140;7.076;2023-08-30T01:35:54;15.50;99.90
15113;DHT22;7657;50.140;7.076;2023-08-30T01:38:23;15.50;99.90
15113;DHT22;7657;50.140;7.076;2023-08-30T01:40:52;15.60;99.90
15113;DHT22;7657;50.140;7.076;2023-08-30T01:43:20;15.50;99.90
15113;DHT22;7657;50.140;7.076;2023-08-30T01:45:48;15.50;99.90
15113;DHT22;7657;50.140;7.076;2023-08-30T01:48:16;15.40;99.90
15113;DHT22;7657;50.140;7.076;2023-08-30T01:50:44;15.40;99.90
15113;DHT22;7657;50.140;7.076;2023-08-30T01:53:13;15.40;99.90
15113;DHT22;7657;50.140;7.076;2023-08-30T01:55:40;15.20;99.90
15113;DHT22;7657;50.140;7.076;2023-08-30T01:58:07;15.10;99.90
15113;DHT22;7657;50.140;7.076;2023-08-30T02:00:35;15.00;99.90
15113;DHT22;7657;50.140;7.076;2023-08-30T02:03:09;14.90;99.90
15113;DHT22;7657;50.140;7.076;2023-08-30T02:05:43;14.90;99.90
15113;DHT22;7657;50.140;7.076;2023-08-30T02:08:16;14.80;99.90
15113;DHT22;7657;50.140;7.076;2023-08-30T02:10:50;14.80;99.90
15113;DHT22;7657;50.140;7.076;2023-08-30T02:13:21;14.80;99.90
15113;DHT22;7657;50.140;7.076;2023-08-30T02:15:52;14.80;99.90
15113;DHT22;7657;50.140;7.076;2023-08-30T02:18:22;14.80;99.90
15113;DHT22;7657;50.140;7.076;2023-08-30T02:20:50;14.60;99.90
15113;DHT22;7657;50.140;7.076;2023-08-30T02:23:17;14.50;99.90
15113;DHT22;7657;50.140;7.076;2023-08-30T02:25:44;14.40;99.90
15113;DHT22;7657;50.140;7.076;2023-08-30T02:28:11;14.60;99.90
15113;DHT22;7657;50.140;7.076;2023-08-30T02:30:38;14.60;99.90
15113;DHT22;7657;50.140;7.076;2023-08-30T02:33:05;14.60;99.90
15113;DHT22;7657;50.140;7.076;2023-08-30T02:35:33;14.60;99.90
15113;DHT22;7657;50.140;7.076;2023-08-30T02:38:00;14.60;99.90
15113;DHT22;7657;50.140;7.076;2023-08-30T02:40:30;14.60;99.90
15113;DHT22;7657;50.140;7.076;2023-08-30T02:42:57;14.70;99.90
15113;DHT22;7657;50.140;7.076;2023-08-30T02:45:24;14.80;99.90
15113;DHT22;7657;50.140;7.076;2023-08-30T02:47:50;14.60;99.90
15113;DHT22;7657;50.140;7.076;2023-08-30T02:50:17;14.40;99.90
15113;DHT22;7657;50.140;7.076;2023-08-30T02:52:46;14.30;99.90
15113;DHT22;7657;50.140;7.076;2023-08-30T02:55:13;14.00;99.90
15113;DHT22;7657;50.140;7.076;2023-08-30T02:57:39;13.80;99.90
15113;DHT22;7657;50.140;7.076;2023-08-30T03:00:07;13.90;99.90
15113;DHT22;7657;50.140;7.076;2023-08-30T03:02:34;14.10;99.90
15113;DHT22;7657;50.140;7.076;2023-08-30T03:05:01;14.10;99.90
15113;DHT22;7657;50.140;7.076;2023-08-30T03:07:30;14.10;99.90
15113;DHT22;7657;50.140;7.076;2023-08-30T03:09:58;14.00;99.90
15113;DHT22;7657;50.140;7.076;2023-08-30T03:12:25;13.90;99.90
15113;DHT22;7657;50.140;7.076;2023-08-30T03:14:52;13.90;99.90
15113;DHT22;7657;50.140;7.076;2023-08-30T03:17:19;14.00;99.90
15113;DHT22;7657;50.140;7.076;2023-08-30T03:19:46;14.20;99.90
15113;DHT22;7657;50.140;7.076;2023-08-30T03:22:12;14.30;99.90
15113;DHT22;7657;50.140;7.076;2023-08-30T03:24:39;14.40;99.90
15113;DHT22;7657;50.140;7.076;2023-08-30T03:27:08;14.30;99.90
15113;DHT22;7657;50.140;7.076;2023-08-30T03:29:35;14.40;99.90
15113;DHT22;7657;50.140;7.076;2023-08-30T03:32:02;14.50;99.90
15113;DHT22;7657;50.140;7.076;2023-08-30T03:34:29;14.60;99.90
15113;DHT22;7657;50.140;7.076;2023-08-30T03:36:55;14.60;99.90
15113;DHT22;7657;50.140;7.076;2023-08-30T03:39:22;14.70;99.90
15113;DHT22;7657;50.140;7.076;2023-08-30T03:41:50;14.70;99.90
15113;DHT22;7657;50.140;7.076;2023-08-30T03:44:18;14.70;99.90
15113;DHT22;7657;50.140;7.076;2023-08-30T03:46:45;14.70;99.90
15113;DHT22;7657;50.140;7.076;2023-08-30T03:49:12;14.80;99.90
15113;DHT22;7657;50.140;7.076;2023-08-30T03:51:39;14.70;99.90
15113;DHT22;7657;50.140;7.076;2023-08-30T03:54:06;14.60;99.90
15113;DHT22;7657;50.140;7.076;2023-08-30T03:56:34;14.50;99.90
15113;DHT22;7657;50.140;7.076;2023-08-30T03:59:00;14.50;99.90
15113;DHT22;7657;50.140;7.076;2023-08-30T04:01:29;14.50;99.90
15113;DHT22;7657;50.140;7.076;2023-08-30T04:03:55;14.50;99.90
15113;DHT22;7657;50.140;7.076;2023-08-30T04:06:22;14.50;99.90
15113;DHT22;7657;50.140;7.076;2023-08-30T04:08:49;14.60;99.90
15113;DHT22;7657;50.140;7.076;2023-08-30T04:11:16;14.60;99.90
15113;DHT22;7657;50.140;7.076;2023-08-30T04:13:43;14.60;99.90
15113;DHT22;7657;50.140;7.076;2023-08-30T04:16:10;14.30;99.90
15113;DHT22;7657;50.140;7.076;2023-08-30T04:18:38;14.20;99.90
15113;DHT22;7657;50.140;7.076;2023-08-30T04:21:05;14.30;99.90
15113;DHT22;7657;50.140;7.076;2023-08-30T04:23:34;14.40;99.90
15113;DHT22;7657;50.140;7.076;2023-08-30T04:26:00;14.50;99.90
15113;DHT22;7657;50.140;7.076;2023-08-30T04:28:27;14.60;99.90
15113;DHT22;7657;50.140;7.076;2023-08-30T04:30:54;14.60;99.90
15113;DHT22;7657;50.140;7.076;2023-08-30T04:33:21;14.60;99.90
15113;DHT22;7657;50.140;7.076;2023-08-30T04:35:52;14.70;99.90
15113;DHT22;7657;50.140;7.076;2023-08-30T04:38:19;14.60;99.90
15113;DHT22;7657;50.140;7.076;2023-08-30T04:40:46;14.60;99.90
15113;DHT22;7657;50.140;7.076;2023-08-30T04:43:14;14.70;99.90
15113;DHT22;7657;50.140;7.076;2023-08-30T04:45:41;14.70;99.90
15113;DHT22;7657;50.140;7.076;2023-08-30T04:48:08;14.60;99.90
15113;DHT22;7657;50.140;7.076;2023-08-30T04:50:34;14.70;99.90
15113;DHT22;7657;50.140;7.076;2023-08-30T04:53:03;14.70;99.90
15113;DHT22;7657;50.140;7.076;2023-08-30T04:55:30;14.70;99.90
15113;DHT22;7657;50.140;7.076;2023-08-30T04:57:57;14.70;99.90
15113;DHT22;7657;50.140;7.076;2023-08-30T05:00:24;14.70;99.90
15113;DHT22;7657;50.140;7.076;2023-08-30T05:02:51;14.70;99.90
15113;DHT22;7657;50.140;7.076;2023-08-30T05:05:18;14.50;99.90
15113;DHT22;7657;50.140;7.076;2023-08-30T05:07:45;14.40;99.90
15113;DHT22;7657;50.140;7.076;2023-08-30T05:10:13;14.50;99.90
15113;DHT22;7657;50.140;7.076;2023-08-30T05:12:41;14.60;99.90
15113;DHT22;7657;50.140;7.076;2023-08-30T05:15:13;14.70;99.90
15113;DHT22;7657;50.140;7.076;2023-08-30T05:17:40;14.70;99.90
15113;DHT22;7657;50.140;7.076;2023-08-30T05:20:08;14.70;99.90
15113;DHT22;7657;50.140;7.076;2023-08-30T05:22:35;14.80;99.90
15113;DHT22;7657;50.140;7.076;2023-08-30T05:25:02;14.70;99.90
15113;DHT22;7657;50.140;7.076;2023-08-30T05:27:30;14.60;99.90
15113;DHT22;7657;50.140;7.076;2023-08-30T05:29:57;14.60;99.90
15113;DHT22;7657;50.140;7.076;2023-08-30T05:32:24;14.40;99.90
15113;DHT22;7657;50.140;7.076;2023-08-30T05:34:51;14.20;99.90
15113;DHT22;7657;50.140;7.076;2023-08-30T05:37:18;14.20;99.90
15113;DHT22;7657;50.140;7.076;2023-08-30T05:39:45;14.00;99.90
15113;DHT22;7657;50.140;7.076;2023-08-30T05:42:12;14.00;99.90
15113;DHT22;7657;50.140;7.076;2023-08-30T05:44:40;13.80;99.90
15113;DHT22;7657;50.140;7.076;2023-08-30T05:47:07;13.90;99.90
15113;DHT22;7657;50.140;7.076;2023-08-30T05:49:36;14.00;99.90
15113;DHT22;7657;50.140;7.076;2023-08-30T05:52:03;14.10;99.90
15113;DHT22;7657;50.140;7.076;2023-08-30T05:54:30;14.00;99.90
15113;DHT22;7657;50.140;7.076;2023-08-30T05:56:59;14.10;99.90
15113;DHT22;7657;50.140;7.076;2023-08-30T05:59:26;14.20;99.90
15113;DHT22;7657;50.140;7.076;2023-08-30T06:01:54;14.20;99.90
15113;DHT22;7657;50.140;7.076;2023-08-30T06:04:21;14.20;99.90
15113;DHT22;7657;50.140;7.076;2023-08-30T06:06:48;14.20;99.90
15113;DHT22;7657;50.140;7.076;2023-08-30T06:09:15;14.30;99.90
15113;DHT22;7657;50.140;7.076;2023-08-30T06:11:42;14.30;99.90
15113;DHT22;7657;50.140;7.076;2023-08-30T06:14:09;14.40;99.90
15113;DHT22;7657;50.140;7.076;2023-08-30T06:16:36;14.30;99.90
15113;DHT22;7657;50.140;7.076;2023-08-30T06:19:04;14.10;99.90
15113;DHT22;7657;50.140;7.076;2023-08-30T06:21:31;14.20;99.90
15113;DHT22;7657;50.140;7.076;2023-08-30T06:23:58;14.20;99.90
15113;DHT22;7657;50.140;7.076;2023-08-30T06:26:25;14.30;99.90
15113;DHT22;7657;50.140;7.076;2023-08-30T06:28:52;14.20;99.90
15113;DHT22;7657;50.140;7.076;2023-08-30T06:31:19;14.30;99.90
15113;DHT22;7657;50.140;7.076;2023-08-30T06:33:46;14.40;99.90
15113;DHT22;7657;50.140;7.076;2023-08-30T06:36:15;14.50;99.90
15113;DHT22;7657;50.140;7.076;2023-08-30T06:38:43;14.30;99.90
15113;DHT22;7657;50.140;7.076;2023-08-30T06:41:10;14.30;99.90
15113;DHT22;7657;50.140;7.076;2023-08-30T06:43:37;14.10;99.90
15113;DHT22;7657;50.140;7.076;2023-08-30T06:46:04;14.10;99.90
15113;DHT22;7657;50.140;7.076;2023-08-30T06:48:31;14.30;99.90
15113;DHT22;7657;50.140;7.076;2023-08-30T06:50:58;14.30;99.90
15113;DHT22;7657;50.140;7.076;2023-08-30T06:53:26;14.30;99.90
15113;DHT22;7657;50.140;7.076;2023-08-30T06:55:57;14.40;99.90
15113;DHT22;7657;50.140;7.076;2023-08-30T06:58:25;14.40;99.90
15113;DHT22;7657;50.140;7.076;2023-08-30T07:00:52;14.40;99.90
15113;DHT22;7657;50.140;7.076;2023-08-30T07:03:19;14.50;99.90
15113;DHT22;7657;50.140;7.076;2023-08-30T07:05:46;14.40;99.90
15113;DHT22;7657;50.140;7.076;2023-08-30T07:08:14;14.40;99.90
15113;DHT22;7657;50.140;7.076;2023-08-30T07:10:42;14.50;99.90
15113;DHT22;7657;50.140;7.076;2023-08-30T07:13:09;14.50;99.90
15113;DHT22;7657;50.140;7.076;2023-08-30T07:15:38;14.40;99.90
15113;DHT22;7657;50.140;7.076;2023-08-30T07:18:05;14.40;99.90
15113;DHT22;7657;50.140;7.076;2023-08-30T07:20:32;14.40;99.90
15113;DHT22;7657;50.140;7.076;2023-08-30T07:22:59;14.30;99.90
15113;DHT22;7657;50.140;7.076;2023-08-30T07:25:26;14.30;99.90
15113;DHT22;7657;50.140;7.076;2023-08-30T07:27:54;14.30;99.90
15113;DHT22;7657;50.140;7.076;2023-08-30T07:30:21;14.50;99.90
15113;DHT22;7657;50.140;7.076;2023-08-30T07:32:48;14.60;99.90
15113;DHT22;7657;50.140;7.076;2023-08-30T07:35:15;14.70;99.90
15113;DHT22;7657;50.140;7.076;2023-08-30T07:37:42;14.80;99.90
15113;DHT22;7657;50.140;7.076;2023-08-30T07:40:10;14.90;99.90
15113;DHT22;7657;50.140;7.076;2023-08-30T07:42:37;14.90;99.90
15113;DHT22;7657;50.140;7.076;2023-08-30T07:45:06;15.00;99.90
15113;DHT22;7657;50.140;7.076;2023-08-30T07:47:34;15.00;99.90
15113;DHT22;7657;50.140;7.076;2023-08-30T07:50:01;15.00;99.90
15113;DHT22;7657;50.140;7.076;2023-08-30T07:52:28;15.00;99.90
15113;DHT22;7657;50.140;7.076;2023-08-30T07:54:54;15.10;99.90
15113;DHT22;7657;50.140;7.076;2023-08-30T07:57:21;15.10;99.90
15113;DHT22;7657;50.140;7.076;2023-08-30T07:59:48;15.10;99.90
15113;DHT22;7657;50.140;7.076;2023-08-30T08:02:16;15.10;99.90
15113;DHT22;7657;50.140;7.076;2023-08-30T08:04:43;15.20;99.90
15113;DHT22;7657;50.140;7.076;2023-08-30T08:07:10;15.30;99.90
15113;DHT22;7657;50.140;7.076;2023-08-30T08:09:37;15.30;99.90
15113;DHT22;7657;50.140;7.076;2023-08-30T08:12:04;15.20;99.90
15113;DHT22;7657;50.140;7.076;2023-08-30T08:14:31;15.00;99.90
15113;DHT22;7657;50.140;7.076;2023-08-30T08:16:58;14.90;99.90
15113;DHT22;7657;50.140;7.076;2023-08-30T08:19:26;15.00;99.90
15113;DHT22;7657;50.140;7.076;2023-08-30T08:21:54;15.20;99.90
15113;DHT22;7657;50.140;7.076;2023-08-30T08:24:21;15.30;99.90
15113;DHT22;7657;50.140;7.076;2023-08-30T08:26:49;15.40;99.90
15113;DHT22;7657;50.140;7.076;2023-08-30T08:29:16;15.10;99.90
15113;DHT22;7657;50.140;7.076;2023-08-30T08:31:43;14.90;99.90
15113;DHT22;7657;50.140;7.076;2023-08-30T08:34:12;14.90;99.90
15113;DHT22;7657;50.140;7.076;2023-08-30T08:36:41;15.10;99.90
15113;DHT22;7657;50.140;7.076;2023-08-30T08:39:09;15.30;99.90
15113;DHT22;7657;50.140;7.076;2023-08-30T08:41:38;15.30;99.90
15113;DHT22;7657;50.140;7.076;2023-08-30T08:44:07;15.40;99.90
15113;DHT22;7657;50.140;7.076;2023-08-30T08:46:35;15.40;99.90
15113;DHT22;7657;50.140;7.076;2023-08-30T08:49:08;15.50;99.90
15113;DHT22;7657;50.140;7.076;2023-08-30T08:51:37;15.30;99.90
15113;DHT22;7657;50.140;7.076;2023-08-30T08:54:05;15.30;99.90
15113;DHT22;7657;50.140;7.076;2023-08-30T08:56:34;15.40;99.90
15113;DHT22;7657;50.140;7.076;2023-08-30T08:59:02;15.60;99.90
15113;DHT22;7657;50.140;7.076;2023-08-30T09:01:29;15.60;99.90
15113;DHT22;7657;50.140;7.076;2023-08-30T09:03:59;15.80;99.90
15113;DHT22;7657;50.140;7.076;2023-08-30T09:06:26;15.80;99.90
15113;DHT22;7657;50.140;7.076;2023-08-30T09:08:55;15.80;99.90
15113;DHT22;7657;50.140;7.076;2023-08-30T09:11:23;15.90;99.90
15113;DHT22;7657;50.140;7.076;2023-08-30T09:13:50;15.90;99.90
15113;DHT22;7657;50.140;7.076;2023-08-30T09:16:17;15.80;99.90
15113;DHT22;7657;50.140;7.076;2023-08-30T09:18:44;15.90;99.90
15113;DHT22;7657;50.140;7.076;2023-08-30T09:21:11;15.90;99.90
15113;DHT22;7657;50.140;7.076;2023-08-30T09:23:38;16.10;99.90
15113;DHT22;7657;50.140;7.076;2023-08-30T09:26:05;16.10;99.90
15113;DHT22;7657;50.140;7.076;2023-08-30T09:28:42;15.90;99.90
15113;DHT22;7657;50.140;7.076;2023-08-30T09:31:17;15.80;99.90
15113;DHT22;7657;50.140;7.076;2023-08-30T09:33:45;15.60;99.90
15113;DHT22;7657;50.140;7.076;2023-08-30T09:36:14;15.70;99.90
15113;DHT22;7657;50.140;7.076;2023-08-30T09:38:47;15.80;99.90
15113;DHT22;7657;50.140;7.076;2023-08-30T09:41:14;15.70;99.90
15113;DHT22;7657;50.140;7.076;2023-08-30T09:43:44;15.70;99.90
15113;DHT22;7657;50.140;7.076;2023-08-30T09:46:13;15.70;99.90
15113;DHT22;7657;50.140;7.076;2023-08-30T09:48:40;15.70;99.90
15113;DHT22;7657;50.140;7.076;2023-08-30T09:51:08;15.70;99.90
15113;DHT22;7657;50.140;7.076;2023-08-30T09:53:41;15.60;99.90
15113;DHT22;7657;50.140;7.076;2023-08-30T09:56:11;15.60;99.90
15113;DHT22;7657;50.140;7.076;2023-08-30T09:58:40;15.60;99.90
15113;DHT22;7657;50.140;7.076;2023-08-30T10:01:09;15.50;99.90
15113;DHT22;7657;50.140;7.076;2023-08-30T10:03:37;15.60;99.90
15113;DHT22;7657;50.140;7.076;2023-08-30T10:06:04;15.70;99.90
15113;DHT22;7657;50.140;7.076;2023-08-30T10:08:33;15.80;99.90
15113;DHT22;7657;50.140;7.076;2023-08-30T10:11:02;16.00;99.90
15113;DHT22;7657;50.140;7.076;2023-08-30T10:13:29;16.00;99.90
15113;DHT22;7657;50.140;7.076;2023-08-30T10:16:01;16.10;99.90
15113;DHT22;7657;50.140;7.076;2023-08-30T10:18:32;16.30;99.90
15113;DHT22;7657;50.140;7.076;2023-08-30T10:21:03;16.40;99.90
15113;DHT22;7657;50.140;7.076;2023-08-30T10:23:34;16.50;99.90
15113;DHT22;7657;50.140;7.076;2023-08-30T10:26:04;16.50;99.90
15113;DHT22;7657;50.140;7.076;2023-08-30T10:28:33;16.60;99.90
15113;DHT22;7657;50.140;7.076;2023-08-30T10:31:01;16.60;99.90
15113;DHT22;7657;50.140;7.076;2023-08-30T10:33:28;16.60;99.90
15113;DHT22;7657;50.140;7.076;2023-08-30T10:36:04;16.70;99.90
15113;DHT22;7657;50.140;7.076;2023-08-30T10:38:32;16.80;99.90
15113;DHT22;7657;50.140;7.076;2023-08-30T10:41:07;17.00;99.90
15113;DHT22;7657;50.140;7.076;2023-08-30T10:43:35;17.00;99.90
15113;DHT22;7657;50.140;7.076;2023-08-30T10:46:04;17.10;99.90
15113;DHT22;7657;50.140;7.076;2023-08-30T10:48:39;17.30;99.90
15113;DHT22;7657;50.140;7.076;2023-08-30T10:51:23;17.30;99.90
15113;DHT22;7657;50.140;7.076;2023-08-30T10:54:01;17.40;99.90
15113;DHT22;7657;50.140;7.076;2023-08-30T10:56:45;17.60;99.90
15113;DHT22;7657;50.140;7.076;2023-08-30T10:59:16;17.70;99.90
15113;DHT22;7657;50.140;7.076;2023-08-30T11:01:44;17.60;99.90
15113;DHT22;7657;50.140;7.076;2023-08-30T11:04:12;17.60;99.90
15113;DHT22;7657;50.140;7.076;2023-08-30T11:06:43;17.40;99.90
15113;DHT22;7657;50.140;7.076;2023-08-30T11:09:12;17.30;99.90
15113;DHT22;7657;50.140;7.076;2023-08-30T11:11:39;17.10;99.90
15113;DHT22;7657;50.140;7.076;2023-08-30T11:14:06;17.10;99.90
15113;DHT22;7657;50.140;7.076;2023-08-30T11:16:33;16.90;99.90
15113;DHT22;7657;50.140;7.076;2023-08-30T11:19:01;16.60;99.90
15113;DHT22;7657;50.140;7.076;2023-08-30T11:21:29;16.70;99.90
15113;DHT22;7657;50.140;7.076;2023-08-30T11:23:57;16.80;99.90
15113;DHT22;7657;50.140;7.076;2023-08-30T11:26:24;17.00;99.90
15113;DHT22;7657;50.140;7.076;2023-08-30T11:28:51;17.10;99.90
15113;DHT22;7657;50.140;7.076;2023-08-30T11:31:19;17.20;99.90
15113;DHT22;7657;50.140;7.076;2023-08-30T11:33:51;17.30;99.90
15113;DHT22;7657;50.140;7.076;2023-08-30T11:36:21;17.40;99.90
15113;DHT22;7657;50.140;7.076;2023-08-30T11:38:48;17.30;99.90
15113;DHT22;7657;50.140;7.076;2023-08-30T11:41:17;17.40;99.90
15113;DHT22;7657;50.140;7.076;2023-08-30T11:43:44;17.50;99.90
15113;DHT22;7657;50.140;7.076;2023-08-30T11:46:11;17.50;99.90
15113;DHT22;7657;50.140;7.076;2023-08-30T11:48:38;17.60;99.90
15113;DHT22;7657;50.140;7.076;2023-08-30T11:51:07;17.60;99.90
15113;DHT22;7657;50.140;7.076;2023-08-30T11:53:34;17.60;99.90
15113;DHT22;7657;50.140;7.076;2023-08-30T11:56:01;17.60;99.90
15113;DHT22;7657;50.140;7.076;2023-08-30T11:58:32;17.60;99.90
15113;DHT22;7657;50.140;7.076;2023-08-30T12:00:59;17.60;99.90
15113;DHT22;7657;50.140;7.076;2023-08-30T12:03:26;17.50;99.90
15113;DHT22;7657;50.140;7.076;2023-08-30T12:05:54;17.70;99.90
15113;DHT22;7657;50.140;7.076;2023-08-30T12:08:23;17.80;99.90
15113;DHT22;7657;50.140;7.076;2023-08-30T12:10:50;17.90;99.90
15113;DHT22;7657;50.140;7.076;2023-08-30T12:13:21;17.90;99.90
15113;DHT22;7657;50.140;7.076;2023-08-30T12:15:50;18.10;99.90
15113;DHT22;7657;50.140;7.076;2023-08-30T12:18:17;18.10;99.90
15113;DHT22;7657;50.140;7.076;2023-08-30T12:20:54;18.20;99.90
15113;DHT22;7657;50.140;7.076;2023-08-30T12:23:22;18.30;99.90
15113;DHT22;7657;50.140;7.076;2023-08-30T12:26:02;18.30;99.90
15113;DHT22;7657;50.140;7.076;2023-08-30T12:28:31;18.50;99.90
15113;DHT22;7657;50.140;7.076;2023-08-30T12:30:59;18.70;99.90
15113;DHT22;7657;50.140;7.076;2023-08-30T12:33:26;18.70;99.90
15113;DHT22;7657;50.140;7.076;2023-08-30T12:35:54;18.80;99.90
15113;DHT22;7657;50.140;7.076;2023-08-30T12:38:21;18.40;99.90
15113;DHT22;7657;50.140;7.076;2023-08-30T12:40:49;18.50;99.90
15113;DHT22;7657;50.140;7.076;2023-08-30T12:43:17;18.50;99.90
15113;DHT22;7657;50.140;7.076;2023-08-30T12:45:44;18.60;99.90
15113;DHT22;7657;50.140;7.076;2023-08-30T12:48:13;18.50;99.90
15113;DHT22;7657;50.140;7.076;2023-08-30T12:50:41;18.50;99.90
15113;DHT22;7657;50.140;7.076;2023-08-30T12:53:09;18.60;99.90
15113;DHT22;7657;50.140;7.076;2023-08-30T12:55:36;18.60;99.90
15113;DHT22;7657;50.140;7.076;2023-08-30T12:58:04;18.70;99.90
15113;DHT22;7657;50.140;7.076;2023-08-30T13:00:31;18.60;99.90
15113;DHT22;7657;50.140;7.076;2023-08-30T13:02:59;18.60;99.90
15113;DHT22;7657;50.140;7.076;2023-08-30T13:05:27;18.50;99.90
15113;DHT22;7657;50.140;7.076;2023-08-30T13:07:54;18.20;99.90
15113;DHT22;7657;50.140;7.076;2023-08-30T13:10:21;18.10;99.90
15113;DHT22;7657;50.140;7.076;2023-08-30T13:12:48;18.00;99.90
15113;DHT22;7657;50.140;7.076;2023-08-30T13:15:15;18.00;99.90
15113;DHT22;7657;50.140;7.076;2023-08-30T13:17:42;18.20;99.90
15113;DHT22;7657;50.140;7.076;2023-08-30T13:20:10;18.30;99.90
15113;DHT22;7657;50.140;7.076;2023-08-30T13:22:38;18.20;99.90
15113;DHT22;7657;50.140;7.076;2023-08-30T13:25:06;18.10;99.90
15113;DHT22;7657;50.140;7.076;2023-08-30T13:27:34;18.00;99.90
15113;DHT22;7657;50.140;7.076;2023-08-30T13:30:01;17.90;99.90
15113;DHT22;7657;50.140;7.076;2023-08-30T13:32:28;17.80;99.90
15113;DHT22;7657;50.140;7.076;2023-08-30T13:34:55;17.80;99.90
15113;DHT22;7657;50.140;7.076;2023-08-30T13:37:22;17.80;99.90
15113;DHT22;7657;50.140;7.076;2023-08-30T13:39:52;17.80;99.90
15113;DHT22;7657;50.140;7.076;2023-08-30T13:42:19;17.60;99.90
15113;DHT22;7657;50.140;7.076;2023-08-30T13:44:46;17.40;99.90
15113;DHT22;7657;50.140;7.076;2023-08-30T13:47:13;17.30;99.90
15113;DHT22;7657;50.140;7.076;2023-08-30T13:49:42;17.20;99.90
15113;DHT22;7657;50.140;7.076;2023-08-30T13:52:09;17.10;99.90
15113;DHT22;7657;50.140;7.076;2023-08-30T13:54:35;16.90;99.90
15113;DHT22;7657;50.140;7.076;2023-08-30T13:57:04;16.80;99.90
15113;DHT22;7657;50.140;7.076;2023-08-30T13:59:31;16.60;99.90
15113;DHT22;7657;50.140;7.076;2023-08-30T14:01:58;16.60;99.90
15113;DHT22;7657;50.140;7.076;2023-08-30T14:04:25;16.30;99.90
15113;DHT22;7657;50.140;7.076;2023-08-30T14:06:52;16.00;99.90
15113;DHT22;7657;50.140;7.076;2023-08-30T14:09:19;15.90;99.90
15113;DHT22;7657;50.140;7.076;2023-08-30T14:11:45;15.90;99.90
15113;DHT22;7657;50.140;7.076;2023-08-30T14:14:14;15.80;99.90
15113;DHT22;7657;50.140;7.076;2023-08-30T14:16:41;15.90;99.90
15113;DHT22;7657;50.140;7.076;2023-08-30T14:19:08;15.90;99.90
15113;DHT22;7657;50.140;7.076;2023-08-30T14:21:35;16.00;99.90
15113;DHT22;7657;50.140;7.076;2023-08-30T14:24:02;16.10;99.90
15113;DHT22;7657;50.140;7.076;2023-08-30T14:26:29;16.20;99.90
15113;DHT22;7657;50.140;7.076;2023-08-30T14:28:56;16.10;99.90
15113;DHT22;7657;50.140;7.076;2023-08-30T14:31:24;16.10;99.90
15113;DHT22;7657;50.140;7.076;2023-08-30T14:33:55;16.20;99.90
15113;DHT22;7657;50.140;7.076;2023-08-30T14:36:22;16.30;99.90
15113;DHT22;7657;50.140;7.076;2023-08-30T14:38:49;16.30;99.90
15113;DHT22;7657;50.140;7.076;2023-08-30T14:41:16;16.50;99.90
15113;DHT22;7657;50.140;7.076;2023-08-30T14:43:44;16.50;99.90
15113;DHT22;7657;50.140;7.076;2023-08-30T14:46:10;16.50;99.90
15113;DHT22;7657;50.140;7.076;2023-08-30T14:48:39;16.60;99.90
15113;DHT22;7657;50.140;7.076;2023-08-30T14:51:06;16.60;99.90
15113;DHT22;7657;50.140;7.076;2023-08-30T14:53:33;16.30;99.90
15113;DHT22;7657;50.140;7.076;2023-08-30T14:56:01;16.20;99.90
15113;DHT22;7657;50.140;7.076;2023-08-30T14:58:32;16.10;99.90
15113;DHT22;7657;50.140;7.076;2023-08-30T15:00:59;16.10;99.90
15113;DHT22;7657;50.140;7.076;2023-08-30T15:03:26;16.20;99.90
15113;DHT22;7657;50.140;7.076;2023-08-30T15:05:55;16.40;99.90
15113;DHT22;7657;50.140;7.076;2023-08-30T15:08:22;16.50;99.90
15113;DHT22;7657;50.140;7.076;2023-08-30T15:10:49;16.40;99.90
15113;DHT22;7657;50.140;7.076;2023-08-30T15:13:17;16.20;99.90
15113;DHT22;7657;50.140;7.076;2023-08-30T15:15:43;16.30;99.90
15113;DHT22;7657;50.140;7.076;2023-08-30T15:18:11;16.50;99.90
15113;DHT22;7657;50.140;7.076;2023-08-30T15:20:38;16.70;99.90
15113;DHT22;7657;50.140;7.076;2023-08-30T15:23:06;16.90;99.90
15113;DHT22;7657;50.140;7.076;2023-08-30T15:25:33;17.00;99.90
15113;DHT22;7657;50.140;7.076;2023-08-30T15:28:00;17.20;99.90
15113;DHT22;7657;50.140;7.076;2023-08-30T15:30:29;17.40;99.90
15113;DHT22;7657;50.140;7.076;2023-08-30T15:32:55;17.40;99.90
15113;DHT22;7657;50.140;7.076;2023-08-30T15:35:22;17.40;99.90
15113;DHT22;7657;50.140;7.076;2023-08-30T15:37:49;17.40;99.90
15113;DHT22;7657;50.140;7.076;2023-08-30T15:40:18;17.30;99.90
15113;DHT22;7657;50.140;7.076;2023-08-30T15:42:45;17.20;99.90
15113;DHT22;7657;50.140;7.076;2023-08-30T15:45:12;17.30;99.90
15113;DHT22;7657;50.140;7.076;2023-08-30T15:47:38;17.30;99.90
15113;DHT22;7657;50.140;7.076;2023-08-30T15:50:06;17.30;99.90